Time;durP1;ratioP1;P1;durP2;ratioP2;P2;SDS_P1;SDS_P2;PMS_P1;PMS_P2;Temp;Humidity;BMP_temperature;BMP_pressure;BME280_temperature;BME280_humidity;BME280_pressure;Samples;Min_cycle;Max_cycle;Signal;HPM_P1;HPM_P2
2022/10/14 00:00:33;;;;;;;42.08;7.03;;;;;;;;;;4996001;28;20109;-56
2022/10/14 00:03:00;;;;;;;40.78;8.23;;;;;;;;;;4995835;28;20695;-59
2022/10/14 00:05:27;;;;;;;49.42;7.40;;;;;;;;;;5012854;28;20603;-59
2022/10/14 00:07:54;;;;;;;53.20;8.77;;;;;;;;;;4998770;28;20416;-59
2022/10/14 00:10:21;;;;;;;44.38;8.10;;;;;;;;;;5010454;28;20136;-59
2022/10/14 00:12:49;;;;;;;59.20;7.55;;;;;;;;;;5012562;28;20104;-59
2022/10/14 00:15:16;;;;;;;40.97;7.82;;;;;;;;;;5012087;28;20032;-59
2022/10/14 00:17:43;;;;;;;37.63;7.07;;;;;;;;;;5011800;28;20041;-59
2022/10/14 00:20:10;;;;;;;39.72;7.82;;;;;;;;;;5011915;28;20029;-59
2022/10/14 00:22:37;;;;;;;39.50;8.20;;;;;;;;;;5012422;28;20022;-59
2022/10/14 00:25:04;;;;;;;50.97;8.48;;;;;;;;;;5000404;28;20044;-59
2022/10/14 00:27:31;;;;;;;49.40;7.55;;;;;;;;;;4996940;28;20032;-59
2022/10/14 00:29:58;;;;;;;59.25;8.07;;;;;;;;;;5012433;28;20022;-59
2022/10/14 00:32:25;;;;;;;48.85;8.20;;;;;;;;;;5008930;28;20026;-59
2022/10/14 00:34:52;;;;;;;66.82;8.90;;;;;;;;;;4999903;28;20392;-59
2022/10/14 00:37:19;;;;;;;48.90;8.15;;;;;;;;;;4998293;28;20029;-60
2022/10/14 00:39:46;;;;;;;69.07;9.70;;;;;;;;;;5012212;28;20032;-59
2022/10/14 00:42:14;;;;;;;68.22;10.20;;;;;;;;;;4994338;28;20424;-59
2022/10/14 00:44:44;;;;;;;62.95;9.15;;;;;;;;;;5017324;28;20133;-59
2022/10/14 00:47:11;;;;;;;58.35;9.85;;;;;;;;;;5018512;28;20018;-59
2022/10/14 00:49:40;;;;;;;73.68;10.82;;;;;;;;;;5010190;28;20030;-59
2022/10/14 00:52:07;;;;;;;76.70;10.70;;;;;;;;;;5010255;28;20038;-59
2022/10/14 00:54:50;;;;;;;82.53;11.18;;;;;;;;;;5010505;28;20033;-59
2022/10/14 00:57:17;;;;;;;75.20;10.98;;;;;;;;;;5009350;28;20042;-59
2022/10/14 00:59:44;;;;;;;76.82;11.63;;;;;;;;;;5011272;28;20073;-61
2022/10/14 01:02:11;;;;;;;76.03;10.50;;;;;;;;;;5009053;28;20034;-59
2022/10/14 01:04:39;;;;;;;66.38;10.65;;;;;;;;;;5010236;28;20030;-59
2022/10/14 01:07:11;;;;;;;69.68;10.07;;;;;;;;;;5003226;28;20022;-59
2022/10/14 01:09:47;;;;;;;62.78;10.52;;;;;;;;;;5010375;28;20057;-59
2022/10/14 01:12:30;;;;;;;60.38;9.82;;;;;;;;;;5012195;28;20079;-59
2022/10/14 01:15:35;;;;;;;62.78;9.73;;;;;;;;;;5012830;28;20756;-59
2022/10/14 01:18:02;;;;;;;72.18;10.15;;;;;;;;;;4954826;29;20035;-59
2022/10/14 01:20:43;;;;;;;63.88;10.15;;;;;;;;;;4954304;29;20408;-59
2022/10/14 01:23:27;;;;;;;42.65;9.48;;;;;;;;;;4988203;28;20108;-59
2022/10/14 01:26:00;;;;;;;59.13;9.45;;;;;;;;;;5015751;28;20030;-59
2022/10/14 01:28:27;;;;;;;62.70;9.90;;;;;;;;;;5009952;28;20042;-59
2022/10/14 01:30:59;;;;;;;58.83;9.75;;;;;;;;;;5006737;28;20033;-59
2022/10/14 01:33:28;;;;;;;49.17;8.40;;;;;;;;;;5014980;28;20040;-59
2022/10/14 01:36:08;;;;;;;49.45;8.75;;;;;;;;;;4997129;28;20053;-59
2022/10/14 01:38:41;;;;;;;63.10;9.43;;;;;;;;;;5014776;28;20112;-59
2022/10/14 01:41:11;;;;;;;55.25;8.95;;;;;;;;;;5014525;28;20053;-58
2022/10/14 01:43:39;;;;;;;45.42;8.38;;;;;;;;;;5014410;28;20531;-59
2022/10/14 01:46:06;;;;;;;65.05;9.43;;;;;;;;;;5014711;28;20504;-59
2022/10/14 01:48:35;;;;;;;52.63;9.27;;;;;;;;;;5014589;28;20033;-58
2022/10/14 01:51:06;;;;;;;54.55;8.85;;;;;;;;;;5014625;28;20037;-59
2022/10/14 01:53:36;;;;;;;53.88;8.77;;;;;;;;;;5014312;28;20076;-59
2022/10/14 01:56:04;;;;;;;54.92;7.85;;;;;;;;;;5012320;28;20033;-58
2022/10/14 01:58:32;;;;;;;43.78;7.97;;;;;;;;;;5014981;28;20029;-58
2022/10/14 02:00:59;;;;;;;53.08;8.50;;;;;;;;;;5015140;28;20033;-58
2022/10/14 02:03:26;;;;;;;63.50;9.43;;;;;;;;;;5001268;28;20035;-57
2022/10/14 02:05:55;;;;;;;54.90;8.40;;;;;;;;;;5014285;28;20076;-58
2022/10/14 02:08:41;;;;;;;54.72;8.43;;;;;;;;;;5009227;28;20124;-58
2022/10/14 02:11:18;;;;;;;53.22;7.78;;;;;;;;;;5014060;28;20030;-58
2022/10/14 02:13:50;;;;;;;39.65;8.05;;;;;;;;;;5013638;28;20018;-58
2022/10/14 02:16:25;;;;;;;45.72;8.10;;;;;;;;;;5014206;28;20037;-58
2022/10/14 02:18:59;;;;;;;43.08;7.72;;;;;;;;;;5014031;28;20543;-59
2022/10/14 02:21:36;;;;;;;45.45;8.15;;;;;;;;;;5014225;28;20113;-58
2022/10/14 02:24:06;;;;;;;46.25;7.68;;;;;;;;;;5012794;28;20041;-58
2022/10/14 02:26:34;;;;;;;45.40;7.55;;;;;;;;;;5013649;28;20112;-59
2022/10/14 02:29:03;;;;;;;37.03;7.90;;;;;;;;;;5013994;28;20054;-56
2022/10/14 02:31:31;;;;;;;48.60;7.15;;;;;;;;;;5014063;28;20447;-58
2022/10/14 02:34:00;;;;;;;46.05;7.60;;;;;;;;;;5013793;28;20034;-55
2022/10/14 02:36:28;;;;;;;41.58;6.95;;;;;;;;;;5013901;28;20069;-57
2022/10/14 02:38:57;;;;;;;35.50;7.03;;;;;;;;;;5013543;28;20026;-57
2022/10/14 02:41:26;;;;;;;37.08;7.13;;;;;;;;;;5013655;28;20026;-58
2022/10/14 02:43:53;;;;;;;39.25;6.82;;;;;;;;;;5013119;28;20049;-57
2022/10/14 02:46:21;;;;;;;31.52;6.47;;;;;;;;;;5021079;28;20029;-57
2022/10/14 02:48:48;;;;;;;32.72;6.13;;;;;;;;;;5020715;28;20471;-58
2022/10/14 02:51:15;;;;;;;45.35;6.88;;;;;;;;;;5014022;28;20038;-58
2022/10/14 02:53:42;;;;;;;34.83;6.45;;;;;;;;;;4997624;28;20033;-58
2022/10/14 02:56:09;;;;;;;34.53;6.20;;;;;;;;;;5003590;28;20037;-58
2022/10/14 02:58:36;;;;;;;29.55;6.03;;;;;;;;;;5004746;28;20033;-59
2022/10/14 03:01:03;;;;;;;36.50;6.80;;;;;;;;;;5003051;28;20073;-58
2022/10/14 03:03:30;;;;;;;30.67;6.32;;;;;;;;;;5003495;28;20044;-57
2022/10/14 03:05:57;;;;;;;30.75;6.00;;;;;;;;;;5004454;28;20464;-58
2022/10/14 03:08:24;;;;;;;31.83;5.65;;;;;;;;;;5003018;28;20109;-58
2022/10/14 03:10:51;;;;;;;30.33;6.07;;;;;;;;;;4995633;28;20036;-58
2022/10/14 03:13:18;;;;;;;24.30;6.10;;;;;;;;;;5002537;28;20117;-58
2022/10/14 03:15:45;;;;;;;25.35;5.50;;;;;;;;;;5004033;28;20021;-58
2022/10/14 03:18:11;;;;;;;24.98;5.50;;;;;;;;;;5003786;28;20030;-58
2022/10/14 03:20:38;;;;;;;22.55;5.68;;;;;;;;;;5002427;28;20113;-59
2022/10/14 03:23:05;;;;;;;28.00;5.70;;;;;;;;;;5003687;28;20040;-57
2022/10/14 03:25:32;;;;;;;25.13;5.18;;;;;;;;;;5003941;28;20034;-57
2022/10/14 03:27:59;;;;;;;17.90;4.80;;;;;;;;;;5001958;28;20030;-58
2022/10/14 03:30:26;;;;;;;23.00;5.20;;;;;;;;;;5001152;28;20026;-57
2022/10/14 03:32:54;;;;;;;26.90;5.38;;;;;;;;;;4994484;28;20449;-57
2022/10/14 03:35:20;;;;;;;22.13;5.82;;;;;;;;;;5012424;28;20500;-56
2022/10/14 03:37:47;;;;;;;23.48;5.28;;;;;;;;;;5001917;28;20034;-57
2022/10/14 03:40:14;;;;;;;17.95;5.10;;;;;;;;;;5012925;28;20066;-59
2022/10/14 03:42:41;;;;;;;23.17;5.20;;;;;;;;;;5012414;28;20079;-55
2022/10/14 03:45:09;;;;;;;19.80;4.68;;;;;;;;;;5011704;28;20385;-58
2022/10/14 03:47:36;;;;;;;17.02;4.82;;;;;;;;;;5013299;28;20048;-58
2022/10/14 03:50:03;;;;;;;20.38;4.53;;;;;;;;;;5020956;28;20120;-58
2022/10/14 03:52:31;;;;;;;20.65;4.40;;;;;;;;;;5032963;28;20415;-58
2022/10/14 03:54:58;;;;;;;19.35;4.88;;;;;;;;;;5032920;28;20433;-58
2022/10/14 03:57:25;;;;;;;17.13;4.28;;;;;;;;;;5032754;28;20029;-59
2022/10/14 03:59:52;;;;;;;18.67;4.38;;;;;;;;;;5032956;28;20455;-58
2022/10/14 04:02:19;;;;;;;16.75;4.20;;;;;;;;;;5032654;28;20494;-59
2022/10/14 04:04:46;;;;;;;21.08;4.43;;;;;;;;;;5032730;28;20046;-59
2022/10/14 04:07:13;;;;;;;14.38;4.38;;;;;;;;;;5032598;28;20034;-58
2022/10/14 04:09:40;;;;;;;14.55;4.45;;;;;;;;;;5032689;28;20036;-58
2022/10/14 04:12:07;;;;;;;12.95;3.75;;;;;;;;;;5032593;28;20043;-58
2022/10/14 04:14:34;;;;;;;14.85;4.05;;;;;;;;;;5032618;28;20029;-58
2022/10/14 04:17:01;;;;;;;16.70;4.13;;;;;;;;;;5032586;28;20109;-58
2022/10/14 04:19:28;;;;;;;12.80;3.95;;;;;;;;;;5032466;28;20060;-58
2022/10/14 04:21:55;;;;;;;16.83;3.92;;;;;;;;;;5032510;28;20035;-58
2022/10/14 04:24:25;;;;;;;15.48;4.25;;;;;;;;;;5032194;28;20091;-58
2022/10/14 04:26:52;;;;;;;16.00;3.70;;;;;;;;;;5032245;28;20033;-58
2022/10/14 04:29:19;;;;;;;13.68;4.40;;;;;;;;;;5032360;28;20025;-58
2022/10/14 04:31:46;;;;;;;14.68;3.90;;;;;;;;;;5032213;28;20434;-58
2022/10/14 04:34:13;;;;;;;12.73;3.78;;;;;;;;;;5032305;28;20033;-59
2022/10/14 04:36:41;;;;;;;15.48;4.30;;;;;;;;;;5032176;28;20025;-58
2022/10/14 04:39:08;;;;;;;13.52;4.25;;;;;;;;;;5032349;28;20025;-59
2022/10/14 04:41:35;;;;;;;14.30;3.60;;;;;;;;;;5014493;28;20105;-58
2022/10/14 04:44:02;;;;;;;20.83;3.85;;;;;;;;;;5031899;28;20045;-58
2022/10/14 04:46:30;;;;;;;10.68;3.50;;;;;;;;;;5031512;28;20051;-58
2022/10/14 04:48:57;;;;;;;10.00;3.50;;;;;;;;;;5032020;28;20491;-59
2022/10/14 04:51:24;;;;;;;15.02;3.50;;;;;;;;;;5032179;28;20037;-58
2022/10/14 04:53:51;;;;;;;11.30;3.17;;;;;;;;;;5032014;28;20021;-58
2022/10/14 04:56:18;;;;;;;13.30;3.30;;;;;;;;;;5031895;28;20049;-58
2022/10/14 04:58:46;;;;;;;11.93;3.40;;;;;;;;;;5032025;28;20026;-58
2022/10/14 05:01:13;;;;;;;9.50;2.80;;;;;;;;;;5032019;28;20021;-58
2022/10/14 05:03:40;;;;;;;7.53;3.17;;;;;;;;;;5031580;28;20056;-59
2022/10/14 05:06:07;;;;;;;12.38;3.50;;;;;;;;;;5031893;28;20037;-58
2022/10/14 05:08:34;;;;;;;10.02;3.20;;;;;;;;;;5031775;28;20022;-59
2022/10/14 05:11:01;;;;;;;12.48;3.00;;;;;;;;;;5031891;28;20048;-59
2022/10/14 05:13:28;;;;;;;11.10;3.13;;;;;;;;;;5031722;28;20036;-58
2022/10/14 05:15:56;;;;;;;11.20;2.85;;;;;;;;;;5013999;28;20380;-54
2022/10/14 05:18:23;;;;;;;8.57;3.08;;;;;;;;;;5031745;28;20021;-56
2022/10/14 05:20:50;;;;;;;12.70;3.38;;;;;;;;;;5031723;28;20025;-54
2022/10/14 05:23:17;;;;;;;9.88;2.58;;;;;;;;;;5031711;28;20038;-56
2022/10/14 05:25:44;;;;;;;9.10;2.95;;;;;;;;;;5031452;28;20424;-57
2022/10/14 05:28:11;;;;;;;10.63;3.30;;;;;;;;;;5031572;28;20450;-55
2022/10/14 05:30:37;;;;;;;10.38;2.92;;;;;;;;;;5031674;28;20029;-55
2022/10/14 05:33:04;;;;;;;8.15;2.70;;;;;;;;;;5031732;28;20033;-56
2022/10/14 05:35:31;;;;;;;8.05;2.75;;;;;;;;;;5031604;28;20025;-56
2022/10/14 05:37:58;;;;;;;5.88;2.40;;;;;;;;;;5031473;28;20029;-55
2022/10/14 05:40:25;;;;;;;6.90;2.55;;;;;;;;;;5031656;28;20108;-56
2022/10/14 05:42:52;;;;;;;7.55;2.42;;;;;;;;;;5031472;28;20037;-55
2022/10/14 05:45:19;;;;;;;6.00;2.50;;;;;;;;;;5031173;28;20376;-55
2022/10/14 05:47:46;;;;;;;6.82;2.53;;;;;;;;;;5013686;28;20022;-56
2022/10/14 05:50:14;;;;;;;9.65;3.10;;;;;;;;;;5031740;28;20453;-57
2022/10/14 05:52:41;;;;;;;7.40;2.58;;;;;;;;;;5031407;28;20026;-55
2022/10/14 05:55:08;;;;;;;8.63;2.53;;;;;;;;;;5025261;28;20026;-58
2022/10/14 05:57:35;;;;;;;8.30;2.30;;;;;;;;;;5012675;28;20049;-58
2022/10/14 06:00:03;;;;;;;6.05;2.42;;;;;;;;;;5015184;28;20033;-58
2022/10/14 06:02:31;;;;;;;8.45;2.47;;;;;;;;;;5027483;28;20383;-59
2022/10/14 06:04:58;;;;;;;7.30;2.38;;;;;;;;;;5034764;28;20384;-59
2022/10/14 06:07:25;;;;;;;11.65;2.83;;;;;;;;;;5034946;28;20033;-58
2022/10/14 06:09:51;;;;;;;7.93;2.47;;;;;;;;;;5034523;28;20041;-59
2022/10/14 06:12:18;;;;;;;8.68;2.28;;;;;;;;;;5034842;28;20045;-59
2022/10/14 06:14:45;;;;;;;5.72;2.13;;;;;;;;;;5034870;28;20033;-59
2022/10/14 06:17:12;;;;;;;7.32;2.33;;;;;;;;;;5034438;28;20494;-58
2022/10/14 06:19:39;;;;;;;8.38;2.25;;;;;;;;;;5034736;28;20025;-58
2022/10/14 06:22:06;;;;;;;6.53;2.22;;;;;;;;;;5034415;28;20395;-59
2022/10/14 06:24:33;;;;;;;6.60;1.90;;;;;;;;;;5034538;28;20041;-58
2022/10/14 06:27:00;;;;;;;5.00;2.20;;;;;;;;;;5034455;28;20061;-59
2022/10/14 06:29:36;;;;;;;6.57;1.95;;;;;;;;;;5034590;28;20037;-59
2022/10/14 06:32:06;;;;;;;9.05;2.33;;;;;;;;;;5034442;28;20467;-57
2022/10/14 06:34:34;;;;;;;4.93;1.73;;;;;;;;;;5034540;28;20045;-58
2022/10/14 06:37:01;;;;;;;5.32;2.15;;;;;;;;;;5034267;28;20439;-53
2022/10/14 06:39:28;;;;;;;7.47;2.13;;;;;;;;;;5034375;28;20495;-56
2022/10/14 06:41:55;;;;;;;6.38;2.20;;;;;;;;;;5034273;28;20113;-56
2022/10/14 06:44:22;;;;;;;5.55;2.30;;;;;;;;;;5034166;28;20091;-55
2022/10/14 06:46:49;;;;;;;6.55;2.10;;;;;;;;;;5034185;28;20033;-55
2022/10/14 06:49:16;;;;;;;6.30;2.00;;;;;;;;;;5034203;28;20029;-56
2022/10/14 06:51:43;;;;;;;5.55;2.30;;;;;;;;;;5034234;28;20029;-58
2022/10/14 06:54:11;;;;;;;6.32;2.00;;;;;;;;;;5034149;28;20059;-58
2022/10/14 06:56:38;;;;;;;7.15;1.70;;;;;;;;;;5034025;28;20030;-58
2022/10/14 06:59:05;;;;;;;5.03;1.58;;;;;;;;;;5034027;28;20028;-58
2022/10/14 07:01:32;;;;;;;4.70;1.67;;;;;;;;;;5033844;28;20025;-56
2022/10/14 07:03:59;;;;;;;9.23;1.83;;;;;;;;;;5033826;28;20040;-51
2022/10/14 07:06:26;;;;;;;5.05;1.63;;;;;;;;;;5033718;28;20029;-53
2022/10/14 07:08:53;;;;;;;5.10;1.33;;;;;;;;;;5033303;28;20021;-57
2022/10/14 07:11:20;;;;;;;4.53;1.55;;;;;;;;;;5033783;28;20025;-55
2022/10/14 07:13:46;;;;;;;6.45;1.83;;;;;;;;;;5033742;28;20573;-56
2022/10/14 07:16:13;;;;;;;6.13;1.98;;;;;;;;;;5033722;28;20484;-54
2022/10/14 07:18:40;;;;;;;8.18;1.40;;;;;;;;;;5033532;28;20092;-54
2022/10/14 07:21:07;;;;;;;5.40;1.65;;;;;;;;;;5033493;28;20487;-54
2022/10/14 07:23:34;;;;;;;4.35;1.80;;;;;;;;;;5033460;28;20033;-57
2022/10/14 07:26:02;;;;;;;6.43;1.67;;;;;;;;;;5033530;28;20386;-57
2022/10/14 07:28:29;;;;;;;4.05;1.90;;;;;;;;;;5033514;28;20049;-58
2022/10/14 07:31:03;;;;;;;4.55;1.80;;;;;;;;;;5033493;28;20021;-57
2022/10/14 07:33:30;;;;;;;5.75;1.80;;;;;;;;;;5033274;28;20029;-57
2022/10/14 07:36:01;;;;;;;7.15;1.88;;;;;;;;;;5015536;28;20124;-56
2022/10/14 07:38:28;;;;;;;4.68;1.40;;;;;;;;;;5033201;28;20022;-56
2022/10/14 07:41:03;;;;;;;6.63;1.73;;;;;;;;;;5033191;28;20075;-54
2022/10/14 07:43:31;;;;;;;4.65;1.67;;;;;;;;;;5032935;28;20117;-53
2022/10/14 07:46:01;;;;;;;5.50;1.50;;;;;;;;;;5033053;28;20064;-54
2022/10/14 07:48:29;;;;;;;4.60;1.50;;;;;;;;;;5032947;28;20061;-53
2022/10/14 07:50:56;;;;;;;4.45;1.42;;;;;;;;;;5032942;28;20387;-56
2022/10/14 07:53:24;;;;;;;6.45;1.80;;;;;;;;;;5033080;28;20105;-57
2022/10/14 07:55:51;;;;;;;3.85;1.23;;;;;;;;;;5032826;28;20029;-55
2022/10/14 07:58:22;;;;;;;4.35;1.60;;;;;;;;;;5032776;28;20495;-55
2022/10/14 08:00:52;;;;;;;4.20;1.35;;;;;;;;;;5032790;28;20048;-55
2022/10/14 08:03:19;;;;;;;5.75;1.75;;;;;;;;;;5032756;28;20075;-57
2022/10/14 08:05:49;;;;;;;5.00;1.48;;;;;;;;;;5032806;28;20034;-55
2022/10/14 08:08:17;;;;;;;2.67;1.20;;;;;;;;;;5032655;28;20105;-57
2022/10/14 08:10:44;;;;;;;3.50;1.27;;;;;;;;;;5032670;28;20028;-56
2022/10/14 08:13:11;;;;;;;3.53;1.23;;;;;;;;;;5032676;28;20024;-57
2022/10/14 08:15:42;;;;;;;5.00;1.60;;;;;;;;;;5032547;28;20551;-57
2022/10/14 08:18:10;;;;;;;5.55;1.50;;;;;;;;;;5032443;28;20353;-56
2022/10/14 08:20:38;;;;;;;3.40;1.27;;;;;;;;;;5031867;28;20034;-55
2022/10/14 08:23:04;;;;;;;3.13;1.35;;;;;;;;;;5032180;28;20026;-55
2022/10/14 08:25:31;;;;;;;2.38;1.30;;;;;;;;;;5032425;28;20029;-58
2022/10/14 08:27:58;;;;;;;4.47;1.08;;;;;;;;;;5032316;28;20112;-55
2022/10/14 08:30:25;;;;;;;5.20;1.60;;;;;;;;;;5032438;28;20029;-56
2022/10/14 08:32:52;;;;;;;5.50;1.80;;;;;;;;;;5032264;28;20074;-53
2022/10/14 08:35:19;;;;;;;3.03;1.27;;;;;;;;;;5032118;28;20043;-56
2022/10/14 08:37:55;;;;;;;2.55;1.17;;;;;;;;;;5032201;28;20092;-57
2022/10/14 08:40:22;;;;;;;2.95;1.02;;;;;;;;;;5032063;28;20029;-58
2022/10/14 08:43:05;;;;;;;5.22;1.67;;;;;;;;;;5032271;28;20030;-53
2022/10/14 08:45:35;;;;;;;3.05;1.02;;;;;;;;;;5031824;28;20508;-58
2022/10/14 08:48:08;;;;;;;2.70;0.80;;;;;;;;;;5032044;28;20786;-57
2022/10/14 08:50:43;;;;;;;4.20;1.35;;;;;;;;;;5032017;28;20100;-55
2022/10/14 08:53:14;;;;;;;1.85;0.90;;;;;;;;;;5032108;28;20099;-55
2022/10/14 08:55:41;;;;;;;6.32;1.35;;;;;;;;;;5032074;28;20031;-57
2022/10/14 08:58:13;;;;;;;5.28;1.40;;;;;;;;;;5031852;28;20450;-56
2022/10/14 09:00:45;;;;;;;1.85;0.90;;;;;;;;;;5031953;28;20025;-57
2022/10/14 09:03:35;;;;;;;2.60;0.90;;;;;;;;;;5031849;28;20034;-58
2022/10/14 09:06:03;;;;;;;2.85;1.30;;;;;;;;;;5031648;28;20037;-57
2022/10/14 09:08:34;;;;;;;2.80;1.05;;;;;;;;;;5031728;28;20049;-56
2022/10/14 09:11:01;;;;;;;2.38;1.08;;;;;;;;;;5031918;28;20067;-56
2022/10/14 09:13:30;;;;;;;2.25;1.08;;;;;;;;;;5031790;28;20032;-58
2022/10/14 09:16:00;;;;;;;3.22;1.00;;;;;;;;;;5031750;28;20018;-53
2022/10/14 09:18:49;;;;;;;3.58;1.25;;;;;;;;;;5031777;28;20064;-57
2022/10/14 09:21:18;;;;;;;3.08;1.02;;;;;;;;;;5031786;28;20020;-58
2022/10/14 09:23:45;;;;;;;2.75;1.15;;;;;;;;;;5031690;28;20116;-54
2022/10/14 09:26:16;;;;;;;3.63;1.20;;;;;;;;;;5031584;28;20025;-57
2022/10/14 09:28:44;;;;;;;1.83;0.88;;;;;;;;;;5031571;28;20032;-58
2022/10/14 09:31:13;;;;;;;5.68;1.15;;;;;;;;;;5031717;28;20071;-57
2022/10/14 09:33:41;;;;;;;5.53;1.05;;;;;;;;;;5034497;28;20025;-56
2022/10/14 09:36:19;;;;;;;2.63;0.90;;;;;;;;;;5017532;28;20439;-57
2022/10/14 09:38:47;;;;;;;2.45;0.82;;;;;;;;;;5035567;28;20108;-57
2022/10/14 09:41:15;;;;;;;2.92;1.05;;;;;;;;;;5035361;28;20407;-58
2022/10/14 09:44:01;;;;;;;3.78;1.30;;;;;;;;;;5035193;28;20057;-58
2022/10/14 09:46:28;;;;;;;2.15;1.00;;;;;;;;;;5035319;28;20024;-58
2022/10/14 09:48:55;;;;;;;2.22;1.00;;;;;;;;;;5017551;28;20032;-57
2022/10/14 09:51:30;;;;;;;2.15;0.73;;;;;;;;;;5035152;28;20022;-57
2022/10/14 09:53:58;;;;;;;2.97;1.08;;;;;;;;;;5017324;28;20391;-58
2022/10/14 09:56:28;;;;;;;5.32;1.25;;;;;;;;;;5035130;28;20026;-58
2022/10/14 09:58:56;;;;;;;3.10;1.05;;;;;;;;;;5018186;28;20030;-57
2022/10/14 10:01:24;;;;;;;2.67;1.02;;;;;;;;;;5015199;28;20030;-57
2022/10/14 10:03:52;;;;;;;2.33;1.00;;;;;;;;;;5014904;28;20042;-58
2022/10/14 10:06:22;;;;;;;3.03;0.98;;;;;;;;;;5015079;28;20100;-55
2022/10/14 10:08:55;;;;;;;2.80;1.00;;;;;;;;;;5014582;28;20032;-58
2022/10/14 10:11:38;;;;;;;2.65;0.90;;;;;;;;;;5005783;28;20066;-58
2022/10/14 10:14:24;;;;;;;3.38;1.05;;;;;;;;;;5007804;28;20061;-57
2022/10/14 10:17:11;;;;;;;7.47;1.00;;;;;;;;;;5014509;28;20026;-53
2022/10/14 10:19:44;;;;;;;2.13;0.88;;;;;;;;;;5014797;28;20431;-56
2022/10/14 10:22:21;;;;;;;6.10;1.30;;;;;;;;;;5014644;28;20087;-59
2022/10/14 10:24:52;;;;;;;3.38;0.70;;;;;;;;;;5014659;28;20091;-58
2022/10/14 10:27:29;;;;;;;5.50;1.20;;;;;;;;;;5014852;28;20753;-57
2022/10/14 10:29:56;;;;;;;3.53;1.05;;;;;;;;;;5014888;28;20028;-58
2022/10/14 10:32:43;;;;;;;6.65;0.93;;;;;;;;;;5013219;28;20030;-58
2022/10/14 10:35:28;;;;;;;7.70;1.50;;;;;;;;;;5004743;28;20026;-58
2022/10/14 10:38:08;;;;;;;6.70;1.48;;;;;;;;;;5002635;28;20112;-58
2022/10/14 10:40:47;;;;;;;13.93;1.55;;;;;;;;;;4998942;28;20036;-56
2022/10/14 10:43:24;;;;;;;5.43;1.00;;;;;;;;;;5009628;28;20040;-58
2022/10/14 10:46:09;;;;;;;3.88;1.02;;;;;;;;;;5008620;28;20034;-59
2022/10/14 10:48:41;;;;;;;5.63;1.20;;;;;;;;;;5013663;28;20040;-58
2022/10/14 10:51:08;;;;;;;4.60;1.20;;;;;;;;;;5014366;28;20026;-58
2022/10/14 10:53:43;;;;;;;5.63;1.35;;;;;;;;;;5014134;28;20498;-58
2022/10/14 10:56:22;;;;;;;4.95;1.00;;;;;;;;;;5014453;28;20030;-58
2022/10/14 10:58:55;;;;;;;7.20;1.40;;;;;;;;;;5014252;28;20057;-58
2022/10/14 11:01:30;;;;;;;4.32;1.30;;;;;;;;;;5014188;28;20417;-58
2022/10/14 11:04:03;;;;;;;7.45;1.00;;;;;;;;;;5014106;28;20042;-58
2022/10/14 11:12:58;;;;;;;22.10;2.38;;;;;;;;;;4966248;28;20025;-58
2022/10/14 11:15:25;;;;;;;65.55;4.22;;;;;;;;;;4960896;28;20150;-55
2022/10/14 11:18:05;;;;;;;49.67;3.35;;;;;;;;;;5032548;28;20060;-48
2022/10/14 11:20:42;;;;;;;28.52;2.65;;;;;;;;;;5022651;28;20021;-54
2022/10/14 11:23:27;;;;;;;24.10;3.38;;;;;;;;;;5013268;28;20064;-49
2022/10/14 11:25:57;;;;;;;71.15;6.28;;;;;;;;;;5013687;28;20109;-61
2022/10/14 11:28:29;;;;;;;135.35;10.95;;;;;;;;;;5013083;28;20036;-61
2022/10/14 11:31:08;;;;;;;72.28;5.93;;;;;;;;;;5013655;28;20716;-62
2022/10/14 11:34:03;;;;;;;58.58;5.78;;;;;;;;;;5013234;28;20049;-61
2022/10/14 11:36:59;;;;;;;60.15;6.38;;;;;;;;;;5002652;28;20616;-59
2022/10/14 11:39:29;;;;;;;48.55;4.60;;;;;;;;;;4979313;28;20503;-58
2022/10/14 11:42:14;;;;;;;72.72;6.68;;;;;;;;;;5012853;28;20109;-58
2022/10/14 11:44:43;;;;;;;326.25;22.75;;;;;;;;;;4992364;28;20057;-60
2022/10/14 11:47:19;;;;;;;129.02;9.07;;;;;;;;;;5002601;28;20128;-59
2022/10/14 11:49:52;;;;;;;1256.97;106.65;;;;;;;;;;5010862;28;20063;-60
2022/10/14 11:52:34;;;;;;;230.02;20.95;;;;;;;;;;5012836;28;20064;-58
2022/10/14 11:55:07;;;;;;;130.15;12.23;;;;;;;;;;5013046;28;20380;-60
2022/10/14 11:58:00;;;;;;;78.88;9.32;;;;;;;;;;5013095;28;20091;-60
2022/10/14 12:00:29;;;;;;;68.03;7.38;;;;;;;;;;5010500;28;20045;-60
2022/10/14 12:03:21;;;;;;;63.58;7.30;;;;;;;;;;5013043;28;20420;-60
2022/10/14 12:05:48;;;;;;;88.60;8.27;;;;;;;;;;5012910;28;20022;-60
2022/10/14 12:08:15;;;;;;;101.20;10.65;;;;;;;;;;5003618;28;20033;-60
2022/10/14 12:10:47;;;;;;;86.28;8.85;;;;;;;;;;5012927;28;20018;-60
2022/10/14 12:13:20;;;;;;;78.03;8.75;;;;;;;;;;5012872;28;20140;-61
2022/10/14 12:15:51;;;;;;;69.18;8.65;;;;;;;;;;5012803;28;20034;-59
2022/10/14 12:18:18;;;;;;;84.40;8.50;;;;;;;;;;5012365;28;20041;-59
2022/10/14 12:20:48;;;;;;;87.00;9.00;;;;;;;;;;5002762;28;20022;-60
2022/10/14 12:23:21;;;;;;;63.50;7.85;;;;;;;;;;4995747;28;20062;-60
2022/10/14 12:25:53;;;;;;;64.07;6.75;;;;;;;;;;4997184;28;20087;-59
2022/10/14 12:28:20;;;;;;;71.40;6.15;;;;;;;;;;5003396;28;20141;-59
2022/10/14 12:30:47;;;;;;;68.82;6.00;;;;;;;;;;5012577;28;20048;-58
2022/10/14 12:33:18;;;;;;;62.75;5.75;;;;;;;;;;5012587;28;20029;-59
2022/10/14 12:35:49;;;;;;;86.22;6.13;;;;;;;;;;5012463;28;20029;-60
2022/10/14 12:38:16;;;;;;;54.75;6.25;;;;;;;;;;5012480;28;20022;-59
2022/10/14 12:40:43;;;;;;;52.53;4.70;;;;;;;;;;5012400;28;20489;-59
2022/10/14 12:43:30;;;;;;;41.28;4.65;;;;;;;;;;5012360;28;20037;-58
2022/10/14 12:46:00;;;;;;;53.22;5.50;;;;;;;;;;5011738;28;20034;-57
2022/10/14 12:48:30;;;;;;;42.83;5.03;;;;;;;;;;5012269;28;20112;-57
2022/10/14 12:51:13;;;;;;;47.28;5.10;;;;;;;;;;5011842;28;20030;-56
2022/10/14 12:53:47;;;;;;;41.00;4.70;;;;;;;;;;4994499;28;20080;-58
2022/10/14 12:56:27;;;;;;;41.15;4.72;;;;;;;;;;5012096;28;20096;-58
2022/10/14 12:59:00;;;;;;;37.00;4.78;;;;;;;;;;4994384;28;20423;-58
2022/10/14 13:01:27;;;;;;;32.80;4.07;;;;;;;;;;5008476;28;20095;-58
2022/10/14 13:04:06;;;;;;;34.67;4.10;;;;;;;;;;4997957;28;20034;-59
2022/10/14 13:06:37;;;;;;;26.05;3.65;;;;;;;;;;4992042;28;20074;-58
2022/10/14 13:09:27;;;;;;;30.20;4.15;;;;;;;;;;4992222;28;20022;-58
2022/10/14 13:11:54;;;;;;;23.65;3.92;;;;;;;;;;4997201;28;20038;-58
2022/10/14 13:14:24;;;;;;;22.25;3.65;;;;;;;;;;5011817;28;20042;-59
2022/10/14 13:16:51;;;;;;;24.80;3.35;;;;;;;;;;5008158;28;20120;-58
2022/10/14 13:19:33;;;;;;;26.33;3.47;;;;;;;;;;5011641;28;20109;-59
2022/10/14 13:22:12;;;;;;;28.48;4.13;;;;;;;;;;5010858;28;20384;-59
2022/10/14 13:24:43;;;;;;;25.58;3.65;;;;;;;;;;5011566;28;20117;-58
2022/10/14 13:27:15;;;;;;;28.38;4.10;;;;;;;;;;5011635;28;20060;-59
2022/10/14 13:30:00;;;;;;;29.13;3.65;;;;;;;;;;4998310;28;20064;-58
2022/10/14 13:32:27;;;;;;;29.08;3.58;;;;;;;;;;5011621;28;20026;-59
2022/10/14 13:35:04;;;;;;;36.65;4.20;;;;;;;;;;5011791;28;20079;-58
2022/10/14 13:37:39;;;;;;;31.80;4.25;;;;;;;;;;5011378;28;20026;-59
2022/10/14 13:40:16;;;;;;;34.85;3.35;;;;;;;;;;5011740;28;20026;-58
2022/10/14 13:42:44;;;;;;;28.75;3.55;;;;;;;;;;5011533;28;20033;-58
2022/10/14 13:45:14;;;;;;;34.33;4.10;;;;;;;;;;5003907;28;20444;-59
2022/10/14 13:47:42;;;;;;;46.13;4.63;;;;;;;;;;5005830;28;20037;-58
2022/10/14 13:50:11;;;;;;;41.80;4.35;;;;;;;;;;5011534;28;20045;-59
2022/10/14 13:52:39;;;;;;;56.03;4.47;;;;;;;;;;4999985;28;20057;-59
2022/10/14 13:55:13;;;;;;;50.30;4.53;;;;;;;;;;5009568;28;20092;-57
2022/10/14 13:57:40;;;;;;;49.40;4.30;;;;;;;;;;5011547;28;20029;-59
2022/10/14 14:00:27;;;;;;;51.33;4.28;;;;;;;;;;5011418;28;20025;-59
2022/10/14 14:02:54;;;;;;;36.13;4.47;;;;;;;;;;5011427;28;20026;-58
2022/10/14 14:05:21;;;;;;;45.42;4.43;;;;;;;;;;5011378;28;20361;-59
2022/10/14 14:07:49;;;;;;;47.80;5.88;;;;;;;;;;5011457;28;20061;-59
2022/10/14 14:10:18;;;;;;;54.10;5.88;;;;;;;;;;5011287;28;20084;-58
2022/10/14 14:12:46;;;;;;;43.97;5.50;;;;;;;;;;5011351;28;20502;-58
2022/10/14 14:15:21;;;;;;;63.65;5.22;;;;;;;;;;5011153;28;20079;-58
2022/10/14 14:17:48;;;;;;;52.28;5.75;;;;;;;;;;5011403;28;20057;-58
2022/10/14 14:20:18;;;;;;;40.92;4.55;;;;;;;;;;5013198;28;20022;-58
2022/10/14 14:22:45;;;;;;;49.47;5.28;;;;;;;;;;5014768;28;20033;-59
2022/10/14 14:25:12;;;;;;;48.22;4.38;;;;;;;;;;5013293;28;20388;-59
2022/10/14 14:28:00;;;;;;;46.90;5.05;;;;;;;;;;5014435;28;20022;-59
2022/10/14 14:30:32;;;;;;;34.15;5.00;;;;;;;;;;5013415;28;20033;-60
2022/10/14 14:33:00;;;;;;;46.67;4.93;;;;;;;;;;5002741;28;20105;-59
2022/10/14 14:35:27;;;;;;;34.30;4.13;;;;;;;;;;5000624;28;20420;-60
2022/10/14 14:37:54;;;;;;;38.08;4.65;;;;;;;;;;5008138;28;20105;-59
2022/10/14 14:40:22;;;;;;;37.28;4.55;;;;;;;;;;5007184;28;20033;-59
2022/10/14 14:42:51;;;;;;;44.15;4.35;;;;;;;;;;5014144;28;20384;-60
2022/10/14 14:45:20;;;;;;;33.75;4.43;;;;;;;;;;5014005;28;20579;-58
2022/10/14 14:47:49;;;;;;;35.85;4.10;;;;;;;;;;5014133;28;20484;-58
2022/10/14 14:50:18;;;;;;;40.53;4.50;;;;;;;;;;5000450;28;20435;-59
2022/10/14 14:52:46;;;;;;;34.13;4.10;;;;;;;;;;5014091;28;20028;-58
2022/10/14 14:55:31;;;;;;;44.45;4.88;;;;;;;;;;5013900;28;20022;-58
2022/10/14 14:58:06;;;;;;;48.83;5.40;;;;;;;;;;5014049;28;20463;-59